Time;durP1;ratioP1;P1;durP2;ratioP2;P2;SDS_P1;SDS_P2;PMS_P1;PMS_P2;Temp;Humidity;BMP_temperature;BMP_pressure;BME280_temperature;BME280_humidity;BME280_pressure;Samples;Min_cycle;Max_cycle;Signal;HPM_P1;HPM_P2
2022/06/26 00:00:32;;;;;;;5.97;4.20;;;;;;;23.98;52.62;100520.64;5251250;56;1138989;-73
2022/06/26 00:05:40;;;;;;;9.83;5.03;;;;;;;23.89;52.85;100527.25;5172482;56;1139177;-73
2022/06/26 00:10:46;;;;;;;4.12;3.72;;;;;;;23.78;53.08;100524.13;5114607;57;1139429;-73
2022/06/26 00:15:52;;;;;;;6.70;4.17;;;;;;;23.67;53.23;100534.19;5067360;58;1139656;-73
2022/06/26 00:20:59;;;;;;;5.17;4.42;;;;;;;23.60;53.64;100533.84;5067376;58;1139331;-73
2022/06/26 00:26:05;;;;;;;5.03;4.53;;;;;;;23.53;53.74;100530.30;5068022;58;1138932;-73
2022/06/26 00:31:11;;;;;;;4.90;3.72;;;;;;;23.37;54.09;100543.61;5068021;58;1139027;-73
2022/06/26 00:36:17;;;;;;;4.90;4.40;;;;;;;23.28;54.23;100538.88;5068145;58;1139057;-73
2022/06/26 00:41:23;;;;;;;6.25;3.77;;;;;;;23.26;54.72;100539.59;5127708;57;1139117;-73
2022/06/26 00:46:29;;;;;;;9.48;4.50;;;;;;;23.23;54.93;100545.39;5067796;58;1139290;-73
2022/06/26 00:51:37;;;;;;;5.62;4.65;;;;;;;23.18;54.87;100543.00;5151526;57;1138936;-73
2022/06/26 00:56:43;;;;;;;8.38;4.40;;;;;;;23.09;55.24;100545.02;5151518;57;1139359;-73
2022/06/26 01:01:49;;;;;;;7.15;4.35;;;;;;;22.95;55.45;100547.32;5151476;57;1138962;-73
2022/06/26 01:06:56;;;;;;;4.33;3.92;;;;;;;22.85;55.75;100540.95;5111313;57;1139102;-72
2022/06/26 01:12:02;;;;;;;10.90;4.12;;;;;;;22.83;56.14;100541.66;5131735;57;1139309;-73
2022/06/26 01:17:08;;;;;;;7.15;4.10;;;;;;;22.81;56.26;100541.02;5163776;57;1141164;-73
2022/06/26 01:22:14;;;;;;;4.80;4.40;;;;;;;22.80;56.36;100544.23;5251762;56;1139049;-73
2022/06/26 01:27:20;;;;;;;9.88;4.55;;;;;;;22.53;56.79;100547.75;5251665;56;1139133;-72
2022/06/26 01:32:27;;;;;;;4.92;4.42;;;;;;;22.45;57.67;100549.26;5251901;56;1139070;-73
2022/06/26 01:37:32;;;;;;;10.90;5.05;;;;;;;22.50;57.95;100549.48;5244121;56;1139152;-73
2022/06/26 01:42:38;;;;;;;5.67;5.17;;;;;;;22.53;57.90;100553.14;5152639;57;1141109;-73
2022/06/26 01:47:46;;;;;;;10.88;5.12;;;;;;;22.60;57.89;100557.25;5163363;56;1139133;-73
2022/06/26 01:52:52;;;;;;;8.05;4.92;;;;;;;22.60;57.73;100558.08;5209130;56;1141095;-74
2022/06/26 01:58:04;;;;;;;10.03;5.17;;;;;;;22.56;57.83;100559.49;5153585;56;1139057;-73
2022/06/26 02:03:11;;;;;;;4.58;4.20;;;;;;;22.57;57.97;100559.81;5153303;57;1139524;-73
2022/06/26 02:08:18;;;;;;;6.05;4.95;;;;;;;22.48;58.20;100556.92;5209102;56;1137010;-73
2022/06/26 02:13:37;;;;;;;5.87;5.15;;;;;;;22.40;58.70;100563.30;5145619;56;1136983;-73
2022/06/26 02:18:48;;;;;;;5.25;4.75;;;;;;;22.40;59.34;100569.20;5057448;58;1137059;-73
2022/06/26 02:23:56;;;;;;;7.10;5.35;;;;;;;22.37;59.43;100565.03;5057253;58;1137230;-73
2022/06/26 02:29:02;;;;;;;12.23;4.92;;;;;;;22.32;59.25;100572.03;5057193;58;1137043;-73
2022/06/26 02:34:07;;;;;;;17.75;5.65;;;;;;;22.23;59.05;100575.38;5065156;58;1139197;-74
2022/06/26 02:39:14;;;;;;;7.42;4.85;;;;;;;22.21;59.37;100578.78;5061692;57;1139543;-73
2022/06/26 02:44:21;;;;;;;12.40;4.97;;;;;;;22.19;59.48;100589.42;5067641;58;1136893;-73
2022/06/26 02:49:28;;;;;;;9.48;5.33;;;;;;;21.96;59.37;100590.42;5147982;57;1139082;-73
2022/06/26 02:54:34;;;;;;;15.80;4.92;;;;;;;21.82;60.13;100581.88;4826483;59;1137345;-74
2022/06/26 02:59:42;;;;;;;13.13;5.55;;;;;;;21.82;60.57;100589.97;4893437;59;1139505;-74
2022/06/26 03:04:48;;;;;;;13.22;5.70;;;;;;;21.75;60.76;100593.08;4896592;60;1137669;-73
2022/06/26 03:09:56;;;;;;;8.83;6.10;;;;;;;21.66;61.20;100595.57;4863109;60;21656;-74
2022/06/26 03:15:02;;;;;;;6.78;6.20;;;;;;;21.69;61.29;100600.59;4955344;59;1134989;-73
2022/06/26 03:20:12;;;;;;;9.28;5.67;;;;;;;21.71;61.20;100607.94;4999167;59;1139147;-74
2022/06/26 03:25:19;;;;;;;6.85;5.60;;;;;;;21.72;61.38;100610.95;4915383;59;1139219;-74
2022/06/26 03:30:26;;;;;;;10.95;5.67;;;;;;;21.69;61.42;100616.19;5004494;58;1139051;-73
2022/06/26 03:35:32;;;;;;;8.73;6.53;;;;;;;21.67;61.50;100612.88;5076276;58;1141231;-73
2022/06/26 03:40:39;;;;;;;6.95;5.95;;;;;;;21.65;61.85;100612.23;5123641;57;1139050;-73
2022/06/26 03:45:46;;;;;;;7.30;6.08;;;;;;;21.64;62.19;100621.33;5156027;57;1139128;-74
2022/06/26 03:50:51;;;;;;;10.82;5.60;;;;;;;21.62;62.74;100625.23;5076260;58;1138912;-73
2022/06/26 03:55:59;;;;;;;8.85;6.72;;;;;;;21.66;62.77;100618.45;5076331;57;1141160;-73
2022/06/26 04:01:05;;;;;;;13.00;5.70;;;;;;;21.72;62.80;100617.17;5065412;58;1139106;-73
2022/06/26 04:06:11;;;;;;;6.22;5.60;;;;;;;21.75;63.01;100614.11;5064568;58;1141096;-73
2022/06/26 04:11:17;;;;;;;9.55;6.08;;;;;;;21.82;63.19;100618.23;5066470;57;1139108;-73
2022/06/26 04:16:25;;;;;;;8.58;6.03;;;;;;;21.86;63.15;100618.66;5146487;57;1139134;-74
2022/06/26 04:21:32;;;;;;;8.70;6.05;;;;;;;21.88;63.31;100624.70;5146815;57;1139350;-73
2022/06/26 04:26:40;;;;;;;6.62;5.90;;;;;;;21.94;63.14;100626.13;5146682;57;1139099;-73
2022/06/26 04:31:46;;;;;;;14.87;7.25;;;;;;;22.02;63.09;100625.20;5108219;57;1139172;-73
2022/06/26 04:36:53;;;;;;;8.38;5.96;;;;;;;21.96;63.07;100613.83;5147037;57;1141150;-73
2022/06/26 04:42:00;;;;;;;9.98;6.10;;;;;;;22.09;63.24;100636.89;5215541;56;1139175;-73
2022/06/26 04:47:05;;;;;;;12.70;6.40;;;;;;;22.15;63.05;100633.45;5205158;56;1139303;-74
2022/06/26 04:52:13;;;;;;;8.58;6.55;;;;;;;22.25;62.91;100643.39;5224706;56;1141532;-73
2022/06/26 04:57:20;;;;;;;10.30;6.28;;;;;;;22.32;62.73;100644.27;5223746;56;1139048;-73
2022/06/26 05:02:28;;;;;;;14.05;6.25;;;;;;;22.35;62.56;100652.48;5164295;56;1141126;-73
2022/06/26 05:07:38;;;;;;;6.25;5.65;;;;;;;22.41;62.61;100657.95;5167442;56;1141336;-73
2022/06/26 05:12:47;;;;;;;10.08;5.80;;;;;;;22.53;62.60;100660.13;5154539;56;1139308;-73
2022/06/26 05:17:56;;;;;;;6.55;5.47;;;;;;;22.63;62.24;100668.20;5036828;58;1141188;-74
2022/06/26 05:23:03;;;;;;;6.72;6.03;;;;;;;22.75;62.21;100668.02;5058510;57;1139307;-74
2022/06/26 05:28:10;;;;;;;14.46;13.02;;;;;;;22.85;62.05;100668.22;5097596;57;1139225;-74
2022/06/26 05:33:17;;;;;;;11.48;5.72;;;;;;;22.99;61.44;100674.87;5139730;57;1143262;-74
2022/06/26 05:38:22;;;;;;;9.25;8.18;;;;;;;23.11;60.98;100671.11;5074118;57;1141153;-74
2022/06/26 05:43:29;;;;;;;7.40;6.33;;;;;;;23.30;61.76;100681.21;5098098;57;1139097;-74
2022/06/26 05:48:35;;;;;;;12.18;6.08;;;;;;;23.50;60.86;100682.69;5147062;57;1138955;-74
2022/06/26 05:53:42;;;;;;;7.72;5.85;;;;;;;23.64;60.36;100683.63;5073768;57;1141058;-74
2022/06/26 05:59:02;;;;;;;11.70;5.72;;;;;;;23.82;59.08;100685.27;5202746;56;1137018;-74
2022/06/26 06:04:26;;;;;;;10.15;7.10;;;;;;;23.99;59.99;100689.78;5166404;56;1139000;-74
2022/06/26 06:09:34;;;;;;;5.72;5.15;;;;;;;24.18;59.69;100692.56;5010435;58;1139066;-74
2022/06/26 06:14:40;;;;;;;9.23;5.67;;;;;;;24.32;58.87;100691.27;5148969;56;1137280;-74
2022/06/26 06:19:46;;;;;;;20.05;12.30;;;;;;;24.40;59.26;100693.28;5065546;58;1137226;-75
2022/06/26 06:24:51;;;;;;;7.87;5.85;;;;;;;24.59;58.93;100693.01;5138836;57;1141027;-74
2022/06/26 06:29:57;;;;;;;10.25;5.00;;;;;;;24.75;58.75;100687.72;5141313;57;1137155;-74
2022/06/26 06:35:03;;;;;;;5.28;4.87;;;;;;;25.00;58.78;100687.95;5144147;57;1138997;-74
2022/06/26 06:40:14;;;;;;;10.15;4.60;;;;;;;25.15;57.49;100697.52;5160000;57;1136936;-74
2022/06/26 06:45:20;;;;;;;5.33;4.60;;;;;;;25.33;57.47;100701.45;5082879;56;1139142;-75
2022/06/26 06:50:27;;;;;;;4.42;4.12;;;;;;;25.56;57.35;100703.16;5105676;56;1136928;-74
2022/06/26 06:55:34;;;;;;;14.03;4.80;;;;;;;25.84;55.52;100711.84;5073863;58;1134984;-74
2022/06/26 07:00:40;;;;;;;4.53;4.08;;;;;;;26.07;55.57;100710.52;5100371;56;1137090;-74
2022/06/26 07:05:47;;;;;;;8.53;4.05;;;;;;;26.32;55.38;100711.45;5111169;56;1138996;-75
2022/06/26 07:10:53;;;;;;;4.85;4.37;;;;;;;26.48;52.17;100708.23;5155333;56;1138993;-74
2022/06/26 07:15:59;;;;;;;4.20;3.80;;;;;;;26.66;54.12;100705.30;5119802;56;1139018;-75
2022/06/26 07:21:07;;;;;;;6.87;4.33;;;;;;;26.80;52.28;100703.62;5108974;57;1139025;-74
2022/06/26 07:26:14;;;;;;;5.72;4.35;;;;;;;26.95;51.29;100701.97;5085112;57;1139034;-74
2022/06/26 07:31:21;;;;;;;5.28;4.20;;;;;;;27.13;53.00;100697.12;5112033;56;1138943;-74
2022/06/26 07:36:28;;;;;;;5.62;3.72;;;;;;;27.33;52.40;100700.48;5149545;56;1139238;-74
2022/06/26 07:41:34;;;;;;;6.97;4.65;;;;;;;27.54;52.29;100704.11;5028569;58;1139162;-74
2022/06/26 07:46:41;;;;;;;6.20;3.98;;;;;;;27.84;51.76;100700.66;5161281;57;1139051;-75
2022/06/26 07:51:48;;;;;;;6.90;3.67;;;;;;;28.03;49.49;100696.88;5144683;57;1139158;-74
2022/06/26 07:56:54;;;;;;;6.90;4.22;;;;;;;28.17;49.03;100696.99;5059667;58;1139017;-74
2022/06/26 08:01:59;;;;;;;6.78;3.67;;;;;;;28.29;48.32;100700.62;5105635;56;1138982;-74
2022/06/26 08:07:05;;;;;;;8.63;4.12;;;;;;;28.44;47.83;100695.28;5111023;57;1139044;-74
2022/06/26 08:12:11;;;;;;;3.58;3.27;;;;;;;28.57;46.74;100696.47;5100877;57;1139054;-74
2022/06/26 08:22:26;;;;;;;9.33;4.03;;;;;;;28.91;48.10;100682.10;5283571;54;46166;-73
2022/06/26 08:27:32;;;;;;;16.15;3.98;;;;;;;29.04;46.95;100688.67;5011533;57;1134839;-73
2022/06/26 08:32:38;;;;;;;4.95;3.62;;;;;;;29.36;45.67;100686.95;5170059;56;1141169;-73
2022/06/26 08:37:45;;;;;;;3.87;3.20;;;;;;;29.36;45.67;100686.95;5134881;57;1139229;-74
2022/06/26 08:42:53;;;;;;;6.35;3.62;;;;;;;29.55;45.28;100685.78;4932828;58;1139148;-74
2022/06/26 08:48:00;;;;;;;6.35;2.90;;;;;;;29.65;44.06;100687.36;4984476;57;1139500;-74
2022/06/26 08:53:08;;;;;;;7.10;3.70;;;;;;;29.80;41.74;100691.47;5001887;57;1139177;-74
2022/06/26 08:58:14;;;;;;;5.60;2.67;;;;;;;29.80;41.82;100690.94;4939051;58;1139079;-74
2022/06/26 09:03:20;;;;;;;7.37;4.20;;;;;;;29.98;42.41;100688.07;5006498;58;1139346;-75
2022/06/26 09:08:28;;;;;;;5.00;2.67;;;;;;;30.15;42.19;100690.86;5070243;58;1138536;-74
2022/06/26 09:13:42;;;;;;;15.63;3.67;;;;;;;30.32;40.45;100689.54;5063658;58;1139034;-74
2022/06/26 09:18:47;;;;;;;6.92;3.75;;;;;;;30.44;40.00;100694.39;5067796;58;1141063;-74
2022/06/26 09:23:54;;;;;;;3.25;2.92;;;;;;;30.58;39.03;100690.84;5036104;58;1139228;-74
2022/06/26 09:29:13;;;;;;;4.83;3.35;;;;;;;30.76;40.31;100694.72;5113709;57;1139295;-74
2022/06/26 09:34:26;;;;;;;37.55;17.40;;;;;;;30.88;39.86;100685.06;5066890;57;1139197;-74
2022/06/26 09:39:34;;;;;;;10.40;3.40;;;;;;;30.94;37.22;100683.55;5053650;58;1143488;-74
2022/06/26 09:44:57;;;;;;;6.60;2.90;;;;;;;30.94;36.54;100684.91;5097630;57;1139211;-73
2022/06/26 09:50:07;;;;;;;7.22;2.52;;;;;;;31.00;37.00;100681.20;5103684;58;1137172;-73
2022/06/26 09:55:13;;;;;;;2.25;2.05;;;;;;;31.23;36.55;100686.20;5073540;58;1137025;-74
2022/06/26 10:00:19;;;;;;;4.25;2.22;;;;;;;31.46;32.82;100684.63;5109433;57;1137022;-74
2022/06/26 10:10:50;;;;;;;6.80;2.10;;;;;;;31.52;32.28;100686.88;5010548;58;1137066;-75
2022/06/26 10:16:28;;;;;;;7.65;2.85;;;;;;;31.59;31.60;100684.25;5016974;58;1136934;-75
2022/06/26 10:21:39;;;;;;;4.03;2.30;;;;;;;31.67;31.67;100678.90;4954415;57;1139525;-75
2022/06/26 10:26:57;;;;;;;2.42;2.25;;;;;;;31.70;30.48;100674.30;4991680;58;1139045;-75
2022/06/26 10:32:04;;;;;;;2.20;1.90;;;;;;;31.84;30.03;100676.92;5003329;59;1138808;-75
2022/06/26 10:37:15;;;;;;;4.30;2.02;;;;;;;31.95;29.89;100684.16;4836301;61;1139113;-75
2022/06/26 10:47:55;;;;;;;4.87;1.90;;;;;;;32.23;28.88;100676.86;4948537;58;1139032;-75
2022/06/26 10:53:27;;;;;;;2.72;2.17;;;;;;;32.33;28.82;100679.69;4989590;58;1139487;-76
2022/06/26 10:58:41;;;;;;;6.85;1.85;;;;;;;32.38;27.00;100680.58;4888354;59;1139249;-75
2022/06/26 11:03:47;;;;;;;4.92;2.08;;;;;;;32.48;28.46;100677.09;4898752;59;1139409;-76
2022/06/26 11:08:54;;;;;;;4.47;2.05;;;;;;;32.67;27.88;100678.38;4886327;58;1139035;-77
2022/06/26 11:14:08;;;;;;;3.95;1.85;;;;;;;32.79;28.66;100673.56;4821539;60;1139266;-75
2022/06/26 11:19:26;;;;;;;5.37;2.45;;;;;;;32.92;28.46;100672.83;4790700;60;1139007;-76
2022/06/26 11:24:32;;;;;;;3.67;2.20;;;;;;;32.90;28.54;100671.72;4823047;61;1139124;-76
2022/06/26 11:29:38;;;;;;;6.37;2.35;;;;;;;32.98;27.97;100669.05;4899296;59;1139387;-75
2022/06/26 11:34:54;;;;;;;2.72;2.55;;;;;;;33.13;27.95;100667.23;4940064;58;1138993;-76
2022/06/26 11:40:00;;;;;;;2.40;2.20;;;;;;;33.24;28.72;100668.66;4951801;59;1139409;-75
2022/06/26 11:45:07;;;;;;;8.33;3.02;;;;;;;33.15;27.67;100673.83;4888481;59;1136930;-76
2022/06/26 11:50:22;;;;;;;5.58;2.58;;;;;;;33.20;28.01;100657.39;4909333;59;1137021;-76
2022/06/26 11:55:29;;;;;;;10.68;2.80;;;;;;;33.20;28.01;100657.39;4980531;58;1137008;-76
2022/06/26 12:00:37;;;;;;;5.55;2.50;;;;;;;33.19;27.18;100663.42;5051605;58;1138582;-75
2022/06/26 12:05:45;;;;;;;9.78;2.87;;;;;;;33.24;27.34;100668.66;4958466;59;1137337;-75
2022/06/26 12:10:54;;;;;;;3.17;2.25;;;;;;;33.28;28.81;100656.94;4928717;59;1136956;-75
2022/06/26 12:16:06;;;;;;;2.65;1.92;;;;;;;33.34;27.43;100666.83;4910314;59;1136964;-76
2022/06/26 12:21:21;;;;;;;3.50;2.37;;;;;;;33.59;28.52;100666.69;4894480;59;1136990;-74
2022/06/26 12:26:28;;;;;;;2.33;2.10;;;;;;;33.68;27.00;100658.22;4888471;58;1136951;-75
2022/06/26 12:31:33;;;;;;;4.65;2.30;;;;;;;33.66;27.26;100659.02;4769432;61;1137075;-76
2022/06/26 12:36:40;;;;;;;2.83;2.37;;;;;;;33.57;27.57;100653.78;4711529;61;1136960;-76
2022/06/26 12:41:46;;;;;;;5.22;2.40;;;;;;;33.70;28.45;100654.11;4768849;61;1135115;-75
2022/06/26 12:46:52;;;;;;;2.85;2.35;;;;;;;33.71;27.53;100658.52;5009980;58;1135324;-76
2022/06/26 12:51:57;;;;;;;5.35;2.62;;;;;;;33.73;27.32;100652.76;5020204;56;1139310;-74
2022/06/26 12:57:04;;;;;;;6.12;2.70;;;;;;;33.81;27.34;100657.74;5219118;56;1139060;-74
2022/06/26 13:02:11;;;;;;;4.17;2.35;;;;;;;33.88;26.95;100662.45;5237577;56;1139135;-74
2022/06/26 13:07:17;;;;;;;2.95;2.60;;;;;;;33.78;27.13;100670.63;5099580;57;1139090;-73
2022/06/26 13:12:23;;;;;;;5.47;2.45;;;;;;;33.75;27.04;100657.44;5015399;58;1139047;-74
2022/06/26 13:17:29;;;;;;;3.55;2.42;;;;;;;33.76;26.68;100659.08;5034761;58;1139238;-74
2022/06/26 13:22:34;;;;;;;3.73;2.50;;;;;;;33.77;26.67;100659.37;4994227;58;1139032;-73
2022/06/26 13:27:40;;;;;;;9.05;2.72;;;;;;;33.79;26.64;100648.41;5120591;57;1139267;-73
2022/06/26 13:32:46;;;;;;;3.58;2.70;;;;;;;33.63;26.57;100652.16;5046758;58;1139083;-75
2022/06/26 13:37:51;;;;;;;6.10;2.72;;;;;;;33.58;26.68;100648.58;5046866;57;1139130;-75
2022/06/26 13:42:57;;;;;;;3.02;2.80;;;;;;;33.74;26.87;100652.49;5039878;57;1139089;-75
2022/06/26 13:48:04;;;;;;;3.65;2.35;;;;;;;33.83;26.44;100656.38;5055187;57;1139257;-75
2022/06/26 13:53:10;;;;;;;3.15;2.83;;;;;;;33.80;25.72;100648.69;5015483;57;1139063;-75
2022/06/26 13:58:29;;;;;;;3.42;2.42;;;;;;;33.73;26.25;100647.27;5057802;57;1139201;-76
2022/06/26 14:03:31;;;;;;;4.78;2.30;;;;;;;33.84;26.48;100642.94;5059164;58;1139049;-74
2022/06/26 14:08:37;;;;;;;2.75;2.50;;;;;;;33.89;27.04;100643.52;5078328;57;1139035;-75
2022/06/26 14:13:42;;;;;;;3.50;2.30;;;;;;;33.94;26.76;100649.55;5142483;57;1138989;-76
2022/06/26 14:18:48;;;;;;;5.95;2.72;;;;;;;34.00;26.17;100647.92;5142360;57;1139043;-78
2022/06/26 14:29:18;;;;;;;5.67;2.40;;;;;;;33.88;25.85;100650.09;5108897;57;1139045;-76
2022/06/26 14:34:23;;;;;;;3.15;2.50;;;;;;;33.90;26.53;100656.14;5103458;57;1139238;-77
2022/06/26 14:39:29;;;;;;;2.90;2.00;;;;;;;33.92;26.60;100653.13;5089453;57;1139019;-77
2022/06/26 14:44:36;;;;;;;2.30;2.20;;;;;;;33.79;25.94;100655.27;5109994;56;1139052;-77
2022/06/26 14:49:42;;;;;;;7.95;2.67;;;;;;;33.65;26.85;100644.48;5117352;57;1139062;-75
2022/06/26 14:54:49;;;;;;;7.80;2.90;;;;;;;33.58;26.14;100649.41;5113142;57;1139183;-76
2022/06/26 14:59:55;;;;;;;4.92;2.58;;;;;;;33.53;26.69;100664.46;5101824;57;1139014;-77
2022/06/26 15:05:00;;;;;;;5.80;3.35;;;;;;;33.33;26.98;100651.47;5132217;57;1139223;-75
2022/06/26 15:10:12;;;;;;;4.12;3.58;;;;;;;33.21;26.95;100649.45;5137969;57;1139065;-75
2022/06/26 15:15:21;;;;;;;7.72;3.47;;;;;;;33.16;27.60;100648.87;5141073;57;1139049;-76
2022/06/26 15:20:27;;;;;;;2.75;2.55;;;;;;;33.11;27.37;100646.66;5141025;57;1139120;-75
2022/06/26 15:25:32;;;;;;;6.65;2.37;;;;;;;33.10;27.52;100647.20;5140912;57;1138356;-76
2022/06/26 15:30:38;;;;;;;2.65;2.12;;;;;;;32.90;26.92;100644.32;5113519;57;1139239;-76
2022/06/26 15:35:44;;;;;;;4.62;3.15;;;;;;;32.73;27.55;100643.09;5072952;57;1139221;-75
2022/06/26 15:40:50;;;;;;;3.27;2.75;;;;;;;32.64;27.51;100636.98;5039268;58;1137081;-75
2022/06/26 15:45:56;;;;;;;5.78;2.42;;;;;;;32.65;27.86;100627.13;5102699;57;1137063;-74
2022/06/26 15:51:02;;;;;;;6.20;2.22;;;;;;;32.82;28.44;100636.06;5146467;57;1137078;-74
2022/06/26 15:56:08;;;;;;;4.37;2.75;;;;;;;32.90;27.81;100625.14;5143877;57;1137002;-76
2022/06/26 16:01:14;;;;;;;6.33;3.05;;;;;;;32.94;27.62;100630.92;5146253;56;1137003;-74
2022/06/26 16:06:20;;;;;;;3.77;2.30;;;;;;;32.94;27.91;100627.64;5149829;57;1137029;-76
2022/06/26 16:11:26;;;;;;;4.25;2.50;;;;;;;32.97;28.24;100622.19;5149301;57;1136983;-75
2022/06/26 16:16:32;;;;;;;3.65;2.75;;;;;;;32.89;28.08;100628.97;5151091;57;1136996;-76
2022/06/26 16:21:40;;;;;;;5.37;2.40;;;;;;;32.73;28.12;100634.88;5138111;57;1137267;-76
2022/06/26 16:26:46;;;;;;;4.92;2.72;;;;;;;32.68;28.58;100630.72;5146543;56;1137004;-75
2022/06/26 16:31:51;;;;;;;5.12;3.80;;;;;;;32.64;28.57;100623.28;5104765;57;1136947;-77
2022/06/26 16:36:58;;;;;;;4.80;2.60;;;;;;;32.67;28.97;100629.07;5151280;57;1137131;-76
2022/06/26 16:42:04;;;;;;;5.60;2.47;;;;;;;32.61;28.77;100620.52;5151372;57;1136767;-76
2022/06/26 16:47:10;;;;;;;33.20;25.43;;;;;;;32.54;29.03;100630.06;5148613;57;1137044;-76
2022/06/26 16:52:15;;;;;;;3.85;3.55;;;;;;;32.54;29.55;100631.42;5080659;57;1141025;-76
2022/06/26 16:57:23;;;;;;;4.92;2.62;;;;;;;32.57;29.48;100629.52;5078692;57;1136941;-76
2022/06/26 17:02:28;;;;;;;4.03;2.75;;;;;;;32.57;30.18;100618.56;5096230;57;1136872;-74
2022/06/26 17:07:34;;;;;;;5.92;3.30;;;;;;;32.55;30.10;100627.58;5112261;57;1136925;-77
2022/06/26 17:12:40;;;;;;;10.23;3.00;;;;;;;32.54;29.75;100627.32;5126731;56;1134893;-77
2022/06/26 17:17:46;;;;;;;5.50;2.95;;;;;;;32.47;30.11;100622.88;5093559;57;1137068;-75
2022/06/26 17:22:53;;;;;;;11.90;2.77;;;;;;;32.43;30.66;100625.84;5079253;57;1138956;-77
2022/06/26 17:27:59;;;;;;;6.77;2.70;;;;;;;32.35;31.49;100622.23;5074502;58;1141289;-76
2022/06/26 17:33:07;;;;;;;2.95;2.72;;;;;;;32.19;32.13;100631.89;5108775;57;1139015;-75
2022/06/26 17:38:14;;;;;;;8.50;3.00;;;;;;;32.12;32.77;100630.72;5144782;57;1139051;-76
2022/06/26 17:43:20;;;;;;;7.15;2.60;;;;;;;32.03;33.23;100632.28;5151425;57;1139228;-77
2022/06/26 17:48:26;;;;;;;5.42;2.37;;;;;;;31.88;33.80;100637.58;5148024;57;1139202;-77
2022/06/26 17:53:32;;;;;;;6.53;2.72;;;;;;;31.69;34.36;100640.65;5079727;57;1139050;-76
2022/06/26 17:58:40;;;;;;;5.58;2.83;;;;;;;31.57;34.97;100648.13;5067356;57;1139189;-77
2022/06/26 18:03:45;;;;;;;5.15;3.12;;;;;;;31.43;35.65;100642.22;5066950;57;1139119;-77
2022/06/26 18:08:51;;;;;;;3.57;2.73;;;;;;;31.20;36.50;100642.43;5130988;56;1139139;-76
2022/06/26 18:13:57;;;;;;;11.90;3.33;;;;;;;31.04;37.23;100641.89;5147184;56;1139056;-75
2022/06/26 18:19:03;;;;;;;5.10;2.90;;;;;;;30.88;37.18;100646.30;5148339;56;1141173;-76
2022/06/26 18:24:09;;;;;;;7.65;2.70;;;;;;;30.69;37.78;100649.84;5151221;56;1138973;-76
2022/06/26 18:29:15;;;;;;;10.30;2.27;;;;;;;30.50;38.27;100649.75;5150789;56;1139108;-77
2022/06/26 18:34:21;;;;;;;11.43;2.72;;;;;;;30.34;38.39;100650.02;5151285;57;1141198;-76
2022/06/26 18:39:27;;;;;;;4.78;2.40;;;;;;;30.22;38.59;100654.72;5151226;57;1141152;-76
2022/06/26 18:44:33;;;;;;;5.83;2.25;;;;;;;30.10;38.99;100662.10;5150483;57;1139197;-76
2022/06/26 18:49:39;;;;;;;7.03;3.25;;;;;;;30.01;39.04;100660.84;5081930;57;1139062;-76
2022/06/26 18:54:46;;;;;;;8.83;2.90;;;;;;;29.92;39.37;100666.38;5067556;57;1139042;-77
2022/06/26 18:59:52;;;;;;;11.10;2.98;;;;;;;29.81;39.76;100674.87;5067663;57;1139069;-76
2022/06/26 19:04:58;;;;;;;7.58;3.20;;;;;;;29.73;39.73;100678.81;5067362;57;1141183;-75
2022/06/26 19:10:06;;;;;;;10.28;3.87;;;;;;;29.64;40.04;100675.33;5148777;56;1139186;-75
2022/06/26 19:15:12;;;;;;;4.72;2.50;;;;;;;29.53;40.27;100687.92;5083302;57;1141134;-76
2022/06/26 19:20:19;;;;;;;10.78;3.05;;;;;;;29.42;40.45;100694.22;5146501;57;1139062;-76
2022/06/26 19:25:30;;;;;;;;;;;;;;;29.32;40.94;100704.34;5144030;57;1141173;-76
2022/06/26 19:30:36;;;;;;;3.40;2.72;;;;;;;29.21;40.97;100702.95;5115983;56;976359;-75
2022/06/26 19:35:43;;;;;;;7.08;2.75;;;;;;;29.07;41.29;100718.70;5114414;57;1136954;-75
2022/06/26 19:40:50;;;;;;;9.95;3.00;;;;;;;28.96;41.39;100722.25;5107233;56;1138987;-75
2022/06/26 19:45:57;;;;;;;8.23;3.02;;;;;;;28.86;41.68;100728.28;5132322;56;1139067;-76
2022/06/26 19:51:03;;;;;;;4.83;2.95;;;;;;;28.67;42.20;100728.02;5070831;57;1139161;-75
2022/06/26 19:56:09;;;;;;;6.35;3.60;;;;;;;28.67;42.20;100728.02;5145430;56;1138383;-75
2022/06/26 20:01:15;;;;;;;21.02;8.65;;;;;;;28.65;41.90;100744.58;5145145;57;1138977;-75
2022/06/26 20:06:22;;;;;;;20.88;10.68;;;;;;;28.56;41.96;100748.70;5144321;56;1141106;-75
2022/06/26 20:11:33;;;;;;;15.65;7.50;;;;;;;28.28;42.42;100740.28;5182350;56;1143226;-77
2022/06/26 20:16:47;;;;;;;9.23;4.62;;;;;;;28.28;42.42;100740.28;5210774;56;1141137;-76
2022/06/26 20:21:54;;;;;;;8.03;3.95;;;;;;;28.22;42.49;100757.55;5211353;56;1136946;-76
2022/06/26 20:27:00;;;;;;;6.37;3.72;;;;;;;28.09;42.74;100763.13;5210924;56;1137017;-76
2022/06/26 20:32:06;;;;;;;17.75;8.10;;;;;;;27.99;43.12;100757.67;5154878;56;1136944;-76
2022/06/26 20:37:12;;;;;;;11.50;4.47;;;;;;;27.88;43.27;100769.31;5012680;58;1138953;-76
2022/06/26 20:42:21;;;;;;;5.62;3.95;;;;;;;27.80;43.46;100765.55;5019878;58;1139314;-76
2022/06/26 20:47:26;;;;;;;9.63;3.35;;;;;;;27.71;43.50;100767.41;5041154;58;1136980;-76
2022/06/26 20:52:34;;;;;;;6.10;3.17;;;;;;;27.62;43.69;100770.96;5120161;56;1136951;-76
2022/06/26 20:57:52;;;;;;;6.05;3.50;;;;;;;27.54;43.86;100763.05;5110338;57;1137029;-74
2022/06/26 21:02:57;;;;;;;7.25;3.17;;;;;;;27.43;44.04;100773.30;4977605;58;1136945;-76
2022/06/26 21:08:04;;;;;;;3.40;3.10;;;;;;;27.34;44.44;100770.58;4976451;58;1137062;-75
2022/06/26 21:13:10;;;;;;;3.40;3.10;;;;;;;27.28;44.46;100773.65;4972369;58;1137052;-75
2022/06/26 21:18:16;;;;;;;7.67;3.33;;;;;;;27.17;44.81;100779.28;5103091;57;1137233;-76
2022/06/26 21:23:21;;;;;;;3.25;2.70;;;;;;;27.09;44.96;100774.11;5123295;57;1137185;-76
2022/06/26 21:28:27;;;;;;;6.75;3.50;;;;;;;27.05;45.22;100771.52;5122945;57;1136921;-76
2022/06/26 21:33:33;;;;;;;6.65;3.42;;;;;;;26.93;45.57;100769.19;5103248;57;1134753;-75
2022/06/26 21:38:39;;;;;;;6.75;3.42;;;;;;;26.84;45.79;100775.42;5124578;57;1134984;-75
2022/06/26 21:43:45;;;;;;;13.18;4.28;;;;;;;26.72;46.37;100773.11;5074463;57;1139577;-76
2022/06/26 21:48:51;;;;;;;6.47;3.43;;;;;;;26.63;46.56;100777.11;4984974;58;1140980;-75
2022/06/26 21:53:57;;;;;;;7.15;3.12;;;;;;;26.50;47.16;100777.19;5066055;58;1139128;-75
2022/06/26 21:59:03;;;;;;;8.63;3.33;;;;;;;26.41;47.26;100775.79;5066080;58;1138924;-75
2022/06/26 22:04:08;;;;;;;6.37;3.45;;;;;;;26.33;47.44;100773.30;5065878;58;1139107;-75
2022/06/26 22:09:14;;;;;;;8.08;3.85;;;;;;;26.24;47.83;100778.95;5144076;56;1138968;-76
2022/06/26 22:14:20;;;;;;;6.40;3.72;;;;;;;26.12;48.40;100777.97;5219562;56;1138938;-75
2022/06/26 22:19:25;;;;;;;5.97;3.33;;;;;;;25.97;48.74;100774.69;5219533;56;1138969;-75
2022/06/26 22:24:33;;;;;;;12.65;3.37;;;;;;;25.89;49.23;100777.61;5219544;56;1139159;-75
2022/06/26 22:29:39;;;;;;;9.85;3.50;;;;;;;25.81;48.99;100768.38;5219536;56;1141070;-75
2022/06/26 22:34:44;;;;;;;4.78;3.47;;;;;;;25.79;49.55;100769.11;5143766;56;1139211;-76
2022/06/26 22:39:50;;;;;;;7.03;3.70;;;;;;;25.67;49.66;100770.77;5142624;57;1139009;-74
2022/06/26 22:44:56;;;;;;;4.90;3.65;;;;;;;25.58;50.11;100768.27;5142697;56;1139007;-75
2022/06/26 22:50:02;;;;;;;4.47;3.27;;;;;;;25.43;50.49;100769.02;5108572;57;1139112;-75
2022/06/26 22:55:10;;;;;;;4.20;3.70;;;;;;;25.30;50.69;100760.91;5059292;58;1139029;-75
2022/06/26 23:00:18;;;;;;;4.42;3.60;;;;;;;25.19;51.62;100763.73;5059299;58;1139097;-75
2022/06/26 23:05:26;;;;;;;3.65;3.35;;;;;;;25.12;51.62;100752.58;5026032;58;1139063;-75
2022/06/26 23:10:31;;;;;;;9.33;4.03;;;;;;;25.06;51.83;100751.53;5089677;56;1138936;-75
2022/06/26 23:15:38;;;;;;;5.20;3.55;;;;;;;25.01;52.10;100746.45;5129558;56;1138957;-75
2022/06/26 23:20:43;;;;;;;7.83;3.95;;;;;;;24.94;52.34;100745.59;5142671;57;1139215;-75
2022/06/26 23:25:49;;;;;;;8.35;3.65;;;;;;;24.88;52.20;100738.61;5142636;56;1138923;-75
2022/06/26 23:30:55;;;;;;;6.35;4.50;;;;;;;24.85;52.52;100733.61;5143036;56;1138976;-75